sensor_id;sensor_type;location;lat;lon;timestamp;pressure;altitude;pressure_sealevel;temperature;humidity
45525;BME280;31437;58.350;13.828;2023-04-16T00:00:11;100601.22;;;19.93;62.09
45525;BME280;31437;58.350;13.828;2023-04-16T00:02:36;100598.56;;;19.93;61.96
45525;BME280;31437;58.350;13.828;2023-04-16T00:05:02;100593.22;;;19.93;62.01
45525;BME280;31437;58.350;13.828;2023-04-16T00:07:28;100597.72;;;19.92;61.96
45525;BME280;31437;58.350;13.828;2023-04-16T00:09:53;100597.72;;;19.92;61.80
45525;BME280;31437;58.350;13.828;2023-04-16T00:12:18;100593.22;;;19.93;61.81
45525;BME280;31437;58.350;13.828;2023-04-16T00:14:43;100589.72;;;19.92;61.86
45525;BME280;31437;58.350;13.828;2023-04-16T00:17:09;100586.22;;;19.92;61.73
45525;BME280;31437;58.350;13.828;2023-04-16T00:19:34;100592.50;;;19.91;61.87
45525;BME280;31437;58.350;13.828;2023-04-16T00:22:00;100595.16;;;19.91;61.78
45525;BME280;31437;58.350;13.828;2023-04-16T00:24:25;100597.00;;;19.90;61.64
45525;BME280;31437;58.350;13.828;2023-04-16T00:26:50;100591.66;;;19.90;61.55
45525;BME280;31437;58.350;13.828;2023-04-16T00:29:15;100598.81;;;19.90;61.64
45525;BME280;31437;58.350;13.828;2023-04-16T00:31:41;100590.84;;;19.90;61.72
45525;BME280;31437;58.350;13.828;2023-04-16T00:34:06;100586.50;;;19.89;61.65
45525;BME280;31437;58.350;13.828;2023-04-16T00:36:31;100588.16;;;19.90;61.60
45525;BME280;31437;58.350;13.828;2023-04-16T00:38:57;100590.00;;;19.89;61.42
45525;BME280;31437;58.350;13.828;2023-04-16T00:41:22;100587.34;;;19.89;61.51
45525;BME280;31437;58.350;13.828;2023-04-16T00:43:48;100588.31;;;19.88;61.54
45525;BME280;31437;58.350;13.828;2023-04-16T00:46:13;100589.16;;;19.89;61.45
45525;BME280;31437;58.350;13.828;2023-04-16T00:48:39;100593.66;;;19.88;61.38
45525;BME280;31437;58.350;13.828;2023-04-16T00:51:06;100595.44;;;19.88;61.46
45525;BME280;31437;58.350;13.828;2023-04-16T00:53:31;100598.09;;;19.88;61.38
45525;BME280;31437;58.350;13.828;2023-04-16T00:55:58;100594.59;;;19.87;61.34
45525;BME280;31437;58.350;13.828;2023-04-16T00:58:24;100591.09;;;19.87;61.40
45525;BME280;31437;58.350;13.828;2023-04-16T01:00:49;100591.09;;;19.87;61.33
45525;BME280;31437;58.350;13.828;2023-04-16T01:03:15;100585.78;;;19.87;61.33
45525;BME280;31437;58.350;13.828;2023-04-16T01:05:40;100587.72;;;19.85;61.28
45525;BME280;31437;58.350;13.828;2023-04-16T01:08:05;100586.88;;;19.84;61.04
45525;BME280;31437;58.350;13.828;2023-04-16T01:10:31;100583.38;;;19.84;61.23
45525;BME280;31437;58.350;13.828;2023-04-16T01:12:56;100581.56;;;19.84;61.24
45525;BME280;31437;58.350;13.828;2023-04-16T01:15:21;100583.38;;;19.84;61.29
45525;BME280;31437;58.350;13.828;2023-04-16T01:17:47;100581.72;;;19.83;61.20
45525;BME280;31437;58.350;13.828;2023-04-16T01:20:12;100585.22;;;19.83;61.19
45525;BME280;31437;58.350;13.828;2023-04-16T01:22:37;100585.22;;;19.83;61.22
45525;BME280;31437;58.350;13.828;2023-04-16T01:25:02;100587.97;;;19.82;61.20
45525;BME280;31437;58.350;13.828;2023-04-16T01:27:28;100588.97;;;19.81;61.18
45525;BME280;31437;58.350;13.828;2023-04-16T01:29:53;100590.66;;;19.82;60.94
45525;BME280;31437;58.350;13.828;2023-04-16T01:32:20;100593.47;;;19.80;61.06
45525;BME280;31437;58.350;13.828;2023-04-16T01:34:45;100591.63;;;19.81;60.97
45525;BME280;31437;58.350;13.828;2023-04-16T01:37:10;100593.47;;;19.80;60.91
45525;BME280;31437;58.350;13.828;2023-04-16T01:39:36;100597.94;;;19.80;60.96
45525;BME280;31437;58.350;13.828;2023-04-16T01:42:01;100596.25;;;19.79;60.88
45525;BME280;31437;58.350;13.828;2023-04-16T01:44:26;100594.41;;;19.79;60.90
45525;BME280;31437;58.350;13.828;2023-04-16T01:46:52;100594.56;;;19.78;60.95
45525;BME280;31437;58.350;13.828;2023-04-16T01:49:17;100588.41;;;19.77;61.00
45525;BME280;31437;58.350;13.828;2023-04-16T01:51:42;100587.56;;;19.77;60.96
45525;BME280;31437;58.350;13.828;2023-04-16T01:54:08;100590.22;;;19.77;61.00
45525;BME280;31437;58.350;13.828;2023-04-16T01:56:33;100588.53;;;19.76;61.04
45525;BME280;31437;58.350;13.828;2023-04-16T01:58:58;100588.53;;;19.76;60.70
45525;BME280;31437;58.350;13.828;2023-04-16T02:01:23;100584.19;;;19.74;60.78
45525;BME280;31437;58.350;13.828;2023-04-16T02:03:49;100583.19;;;19.76;60.84
45525;BME280;31437;58.350;13.828;2023-04-16T02:06:15;100584.19;;;19.74;60.82
45525;BME280;31437;58.350;13.828;2023-04-16T02:08:40;100582.47;;;19.73;60.67
45525;BME280;31437;58.350;13.828;2023-04-16T02:11:06;100578.13;;;19.72;60.74
45525;BME280;31437;58.350;13.828;2023-04-16T02:13:31;100578.97;;;19.73;60.79
45525;BME280;31437;58.350;13.828;2023-04-16T02:15:56;100579.81;;;19.73;60.71
45525;BME280;31437;58.350;13.828;2023-04-16T02:18:22;100577.31;;;19.72;60.67
45525;BME280;31437;58.350;13.828;2023-04-16T02:20:47;100574.63;;;19.72;60.60
45525;BME280;31437;58.350;13.828;2023-04-16T02:23:14;100569.31;;;19.72;60.54
45525;BME280;31437;58.350;13.828;2023-04-16T02:25:40;100580.94;;;19.71;60.38
45525;BME280;31437;58.350;13.828;2023-04-16T02:28:09;100579.13;;;19.71;60.39
45525;BME280;31437;58.350;13.828;2023-04-16T02:30:35;100582.75;;;19.70;60.43
45525;BME280;31437;58.350;13.828;2023-04-16T02:33:00;100580.22;;;19.69;60.50
45525;BME280;31437;58.350;13.828;2023-04-16T02:35:28;100581.06;;;19.69;60.29
45525;BME280;31437;58.350;13.828;2023-04-16T02:37:54;100585.56;;;19.69;60.42
45525;BME280;31437;58.350;13.828;2023-04-16T02:40:19;100581.22;;;19.68;60.19
45525;BME280;31437;58.350;13.828;2023-04-16T02:42:44;100582.06;;;19.68;60.27
45525;BME280;31437;58.350;13.828;2023-04-16T02:45:10;100581.22;;;19.68;60.12
45525;BME280;31437;58.350;13.828;2023-04-16T02:47:35;100578.56;;;19.68;60.19
45525;BME280;31437;58.350;13.828;2023-04-16T02:50:01;100576.84;;;19.67;60.11
45525;BME280;31437;58.350;13.828;2023-04-16T02:52:26;100572.50;;;19.66;60.10
45525;BME280;31437;58.350;13.828;2023-04-16T02:54:51;100573.34;;;19.66;59.96
45525;BME280;31437;58.350;13.828;2023-04-16T02:57:16;100566.34;;;19.65;60.03
45525;BME280;31437;58.350;13.828;2023-04-16T02:59:42;100572.50;;;19.66;60.04
45525;BME280;31437;58.350;13.828;2023-04-16T03:02:07;100577.00;;;19.65;59.86
45525;BME280;31437;58.350;13.828;2023-04-16T03:04:32;100577.09;;;19.64;59.91
45525;BME280;31437;58.350;13.828;2023-04-16T03:06:57;100572.59;;;19.64;59.74
45525;BME280;31437;58.350;13.828;2023-04-16T03:09:23;100571.75;;;19.64;59.71
45525;BME280;31437;58.350;13.828;2023-04-16T03:11:48;100572.59;;;19.64;59.70
45525;BME280;31437;58.350;13.828;2023-04-16T03:14:13;100575.41;;;19.63;59.72
45525;BME280;31437;58.350;13.828;2023-04-16T03:16:38;100571.75;;;19.64;59.64
45525;BME280;31437;58.350;13.828;2023-04-16T03:19:04;100575.41;;;19.63;59.39
45525;BME280;31437;58.350;13.828;2023-04-16T03:21:30;100570.09;;;19.63;59.46
45525;BME280;31437;58.350;13.828;2023-04-16T03:23:55;100572.75;;;19.63;59.46
45525;BME280;31437;58.350;13.828;2023-04-16T03:26:21;100570.19;;;19.61;59.32
45525;BME280;31437;58.350;13.828;2023-04-16T03:28:46;100572.03;;;19.61;59.30
45525;BME280;31437;58.350;13.828;2023-04-16T03:31:11;100570.34;;;19.60;59.27
45525;BME280;31437;58.350;13.828;2023-04-16T03:33:37;100573.84;;;19.60;59.09
45525;BME280;31437;58.350;13.828;2023-04-16T03:36:02;100575.66;;;19.60;59.08
45525;BME280;31437;58.350;13.828;2023-04-16T03:38:27;100575.66;;;19.60;59.02
45525;BME280;31437;58.350;13.828;2023-04-16T03:40:52;100571.31;;;19.59;59.09
45525;BME280;31437;58.350;13.828;2023-04-16T03:43:18;100575.66;;;19.60;58.94
45525;BME280;31437;58.350;13.828;2023-04-16T03:45:44;100570.47;;;19.58;59.03
45525;BME280;31437;58.350;13.828;2023-04-16T03:48:09;100577.59;;;19.58;58.83
45525;BME280;31437;58.350;13.828;2023-04-16T03:50:34;100573.13;;;19.58;58.85
45525;BME280;31437;58.350;13.828;2023-04-16T03:53:00;100571.44;;;19.57;58.84
45525;BME280;31437;58.350;13.828;2023-04-16T03:55:25;100573.28;;;19.57;58.85
45525;BME280;31437;58.350;13.828;2023-04-16T03:57:50;100582.09;;;19.57;58.76
45525;BME280;31437;58.350;13.828;2023-04-16T04:00:15;100575.94;;;19.57;58.65
45525;BME280;31437;58.350;13.828;2023-04-16T04:02:41;100575.09;;;19.56;58.78
45525;BME280;31437;58.350;13.828;2023-04-16T04:05:06;100575.09;;;19.56;58.69
45525;BME280;31437;58.350;13.828;2023-04-16T04:07:31;100580.41;;;19.56;58.42
45525;BME280;31437;58.350;13.828;2023-04-16T04:09:57;100576.88;;;19.56;58.46
45525;BME280;31437;58.350;13.828;2023-04-16T04:12:22;100578.72;;;19.55;58.49
45525;BME280;31437;58.350;13.828;2023-04-16T04:14:47;100581.38;;;19.55;58.31
45525;BME280;31437;58.350;13.828;2023-04-16T04:17:13;100585.75;;;19.56;58.44
45525;BME280;31437;58.350;13.828;2023-04-16T04:19:38;100580.41;;;19.56;58.38
45525;BME280;31437;58.350;13.828;2023-04-16T04:22:03;100585.75;;;19.56;58.32
45525;BME280;31437;58.350;13.828;2023-04-16T04:24:28;100589.09;;;19.58;58.30
45525;BME280;31437;58.350;13.828;2023-04-16T04:26:54;100586.44;;;19.58;58.25
45525;BME280;31437;58.350;13.828;2023-04-16T04:29:19;100589.94;;;19.59;58.11
45525;BME280;31437;58.350;13.828;2023-04-16T04:31:44;100579.16;;;19.60;58.04
45525;BME280;31437;58.350;13.828;2023-04-16T04:34:10;100587.16;;;19.60;58.08
45525;BME280;31437;58.350;13.828;2023-04-16T04:36:35;100586.16;;;19.61;58.02
45525;BME280;31437;58.350;13.828;2023-04-16T04:39:00;100586.88;;;19.63;57.90
45525;BME280;31437;58.350;13.828;2023-04-16T04:41:25;100591.22;;;19.64;57.87
45525;BME280;31437;58.350;13.828;2023-04-16T04:43:51;100595.47;;;19.67;57.97
45525;BME280;31437;58.350;13.828;2023-04-16T04:46:16;100596.19;;;19.69;58.01
45525;BME280;31437;58.350;13.828;2023-04-16T04:48:41;100601.25;;;19.72;57.97
45525;BME280;31437;58.350;13.828;2023-04-16T04:51:06;100603.66;;;19.75;58.00
45525;BME280;31437;58.350;13.828;2023-04-16T04:53:32;100603.38;;;19.78;57.94
45525;BME280;31437;58.350;13.828;2023-04-16T04:55:57;100605.66;;;19.83;57.77
45525;BME280;31437;58.350;13.828;2023-04-16T04:58:22;100606.22;;;19.86;57.74
45525;BME280;31437;58.350;13.828;2023-04-16T05:00:47;100604.03;;;19.91;57.59
45525;BME280;31437;58.350;13.828;2023-04-16T05:03:17;100608.09;;;19.95;57.94
45525;BME280;31437;58.350;13.828;2023-04-16T05:05:43;100607.72;;;20.00;57.88
45525;BME280;31437;58.350;13.828;2023-04-16T05:08:08;100602.13;;;20.03;57.95
45525;BME280;31437;58.350;13.828;2023-04-16T05:10:33;100602.69;;;20.07;58.09
45525;BME280;31437;58.350;13.828;2023-04-16T05:12:58;100601.41;;;20.11;57.92
45525;BME280;31437;58.350;13.828;2023-04-16T05:15:24;100604.66;;;20.14;58.04
45525;BME280;31437;58.350;13.828;2023-04-16T05:17:49;100613.09;;;20.19;57.98
45525;BME280;31437;58.350;13.828;2023-04-16T05:20:15;100609.19;;;20.24;57.93
45525;BME280;31437;58.350;13.828;2023-04-16T05:22:40;100611.44;;;20.28;58.02
45525;BME280;31437;58.350;13.828;2023-04-16T05:25:05;100606.69;;;20.32;57.98
45525;BME280;31437;58.350;13.828;2023-04-16T05:27:31;100611.72;;;20.35;57.86
45525;BME280;31437;58.350;13.828;2023-04-16T05:29:56;100607.84;;;20.39;57.84
45525;BME280;31437;58.350;13.828;2023-04-16T05:32:23;100614.56;;;20.43;57.74
45525;BME280;31437;58.350;13.828;2023-04-16T05:34:48;100607.13;;;20.47;57.74
45525;BME280;31437;58.350;13.828;2023-04-16T05:37:14;100612.19;;;20.50;57.85
45525;BME280;31437;58.350;13.828;2023-04-16T05:39:39;100613.78;;;20.52;57.56
45525;BME280;31437;58.350;13.828;2023-04-16T05:42:04;100612.53;;;20.56;57.57
45525;BME280;31437;58.350;13.828;2023-04-16T05:44:30;100616.59;;;20.60;57.51
45525;BME280;31437;58.350;13.828;2023-04-16T05:46:55;100612.81;;;20.63;57.54
45525;BME280;31437;58.350;13.828;2023-04-16T05:49:20;100614.38;;;20.66;57.42
45525;BME280;31437;58.350;13.828;2023-04-16T05:51:48;100620.38;;;20.68;57.44
45525;BME280;31437;58.350;13.828;2023-04-16T05:54:13;100623.78;;;20.70;57.22
45525;BME280;31437;58.350;13.828;2023-04-16T05:56:39;100620.16;;;20.71;57.28
45525;BME280;31437;58.350;13.828;2023-04-16T05:59:04;100617.31;;;20.72;57.11
45525;BME280;31437;58.350;13.828;2023-04-16T06:01:29;100620.00;;;20.72;57.08
45525;BME280;31437;58.350;13.828;2023-04-16T06:03:55;100614.53;;;20.74;57.34
45525;BME280;31437;58.350;13.828;2023-04-16T06:06:20;100621.53;;;20.75;56.97
45525;BME280;31437;58.350;13.828;2023-04-16T06:08:45;100620.53;;;20.76;57.11
45525;BME280;31437;58.350;13.828;2023-04-16T06:11:10;100623.94;;;20.78;56.96
45525;BME280;31437;58.350;13.828;2023-04-16T06:13:36;100613.97;;;20.80;56.94
45525;BME280;31437;58.350;13.828;2023-04-16T06:16:01;100617.31;;;20.82;56.94
45525;BME280;31437;58.350;13.828;2023-04-16T06:18:26;100618.88;;;20.84;56.81
45525;BME280;31437;58.350;13.828;2023-04-16T06:20:52;100620.44;;;20.87;57.02
45525;BME280;31437;58.350;13.828;2023-04-16T06:23:17;100620.31;;;20.89;56.84
45525;BME280;31437;58.350;13.828;2023-04-16T06:25:42;100621.13;;;20.89;56.83
45525;BME280;31437;58.350;13.828;2023-04-16T06:28:08;100621.81;;;20.91;56.79
45525;BME280;31437;58.350;13.828;2023-04-16T06:30:33;100629.69;;;20.93;56.61
45525;BME280;31437;58.350;13.828;2023-04-16T06:32:58;100622.41;;;20.95;56.84
45525;BME280;31437;58.350;13.828;2023-04-16T06:35:24;100627.59;;;20.96;56.62
45525;BME280;31437;58.350;13.828;2023-04-16T06:37:49;100621.28;;;20.97;56.68
45525;BME280;31437;58.350;13.828;2023-04-16T06:40:14;100626.47;;;20.99;56.76
45525;BME280;31437;58.350;13.828;2023-04-16T06:42:41;100631.53;;;21.02;56.71
45525;BME280;31437;58.350;13.828;2023-04-16T06:45:06;100631.41;;;21.03;56.90
45525;BME280;31437;58.350;13.828;2023-04-16T06:47:32;100630.41;;;21.04;56.85
45525;BME280;31437;58.350;13.828;2023-04-16T06:49:57;100633.78;;;21.06;57.07
45525;BME280;31437;58.350;13.828;2023-04-16T06:52:22;100630.13;;;21.07;57.15
45525;BME280;31437;58.350;13.828;2023-04-16T06:54:47;100640.66;;;21.09;57.33
45525;BME280;31437;58.350;13.828;2023-04-16T06:57:13;100633.50;;;21.09;57.33
45525;BME280;31437;58.350;13.828;2023-04-16T06:59:38;100642.19;;;21.12;57.46
45525;BME280;31437;58.350;13.828;2023-04-16T07:02:03;100634.06;;;21.13;57.57
45525;BME280;31437;58.350;13.828;2023-04-16T07:04:29;100632.09;;;21.15;57.81
45525;BME280;31437;58.350;13.828;2023-04-16T07:06:54;100642.47;;;21.18;57.90
45525;BME280;31437;58.350;13.828;2023-04-16T07:09:19;100639.81;;;21.18;57.88
45525;BME280;31437;58.350;13.828;2023-04-16T07:11:45;100634.31;;;21.20;57.98
45525;BME280;31437;58.350;13.828;2023-04-16T07:14:10;100631.53;;;21.21;58.21
45525;BME280;31437;58.350;13.828;2023-04-16T07:16:36;100634.88;;;21.23;58.10
45525;BME280;31437;58.350;13.828;2023-04-16T07:19:01;100635.59;;;21.25;58.24
45525;BME280;31437;58.350;13.828;2023-04-16T07:21:27;100633.75;;;21.26;58.31
45525;BME280;31437;58.350;13.828;2023-04-16T07:23:52;100631.81;;;21.28;58.40
45525;BME280;31437;58.350;13.828;2023-04-16T07:26:17;100637.97;;;21.28;58.50
45525;BME280;31437;58.350;13.828;2023-04-16T07:28:43;100640.53;;;21.30;58.68
45525;BME280;31437;58.350;13.828;2023-04-16T07:31:08;100637.69;;;21.31;58.60
45525;BME280;31437;58.350;13.828;2023-04-16T07:33:34;100635.84;;;21.32;58.68
45525;BME280;31437;58.350;13.828;2023-04-16T07:35:59;100640.22;;;21.33;58.73
45525;BME280;31437;58.350;13.828;2023-04-16T07:38:24;100643.72;;;21.33;58.73
45525;BME280;31437;58.350;13.828;2023-04-16T07:40:50;100633.91;;;21.34;58.60
45525;BME280;31437;58.350;13.828;2023-04-16T07:43:15;100635.31;;;21.38;58.75
45525;BME280;31437;58.350;13.828;2023-04-16T07:45:40;100636.69;;;21.62;58.98
45525;BME280;31437;58.350;13.828;2023-04-16T07:48:06;100635.53;;;21.84;59.13
45525;BME280;31437;58.350;13.828;2023-04-16T07:50:31;100632.94;;;22.02;59.16
45525;BME280;31437;58.350;13.828;2023-04-16T07:52:56;100636.72;;;22.18;59.17
45525;BME280;31437;58.350;13.828;2023-04-16T07:55:21;100640.03;;;22.30;59.17
45525;BME280;31437;58.350;13.828;2023-04-16T07:57:47;100639.13;;;22.39;59.04
45525;BME280;31437;58.350;13.828;2023-04-16T08:00:12;100638.47;;;22.55;59.09
45525;BME280;31437;58.350;13.828;2023-04-16T08:02:37;100641.13;;;22.65;58.92
45525;BME280;31437;58.350;13.828;2023-04-16T08:05:03;100636.53;;;22.75;59.02
45525;BME280;31437;58.350;13.828;2023-04-16T08:07:28;100640.19;;;22.74;58.87
45525;BME280;31437;58.350;13.828;2023-04-16T08:09:53;100647.91;;;22.59;58.71
45525;BME280;31437;58.350;13.828;2023-04-16T08:12:19;100644.72;;;22.46;58.61
45525;BME280;31437;58.350;13.828;2023-04-16T08:14:45;100642.25;;;22.35;58.67
45525;BME280;31437;58.350;13.828;2023-04-16T08:17:11;100651.44;;;22.22;58.63
45525;BME280;31437;58.350;13.828;2023-04-16T08:19:36;100648.78;;;22.13;58.52
45525;BME280;31437;58.350;13.828;2023-04-16T08:22:02;100646.00;;;22.05;58.33
45525;BME280;31437;58.350;13.828;2023-04-16T08:24:27;100653.88;;;21.96;58.52
45525;BME280;31437;58.350;13.828;2023-04-16T08:26:52;100657.84;;;21.92;58.56
45525;BME280;31437;58.350;13.828;2023-04-16T08:29:18;100655.75;;;21.86;58.67
45525;BME280;31437;58.350;13.828;2023-04-16T08:31:44;100658.03;;;21.81;58.33
45525;BME280;31437;58.350;13.828;2023-04-16T08:34:10;100661.97;;;21.77;58.36
45525;BME280;31437;58.350;13.828;2023-04-16T08:36:36;100656.06;;;21.73;58.45
45525;BME280;31437;58.350;13.828;2023-04-16T08:39:01;100656.22;;;21.72;58.40
45525;BME280;31437;58.350;13.828;2023-04-16T08:41:26;100652.16;;;21.68;58.29
45525;BME280;31437;58.350;13.828;2023-04-16T08:43:53;100652.41;;;21.65;58.41
45525;BME280;31437;58.350;13.828;2023-04-16T08:46:21;100654.41;;;21.63;58.32
45525;BME280;31437;58.350;13.828;2023-04-16T08:48:48;100646.53;;;21.61;58.38
45525;BME280;31437;58.350;13.828;2023-04-16T08:51:17;100652.16;;;21.58;58.27
45525;BME280;31437;58.350;13.828;2023-04-16T08:56:12;100656.09;;;21.54;58.08
45525;BME280;31437;58.350;13.828;2023-04-16T08:58:37;100659.63;;;21.54;58.17
45525;BME280;31437;58.350;13.828;2023-04-16T09:01:03;100663.09;;;21.65;58.57
45525;BME280;31437;58.350;13.828;2023-04-16T09:03:32;100655.34;;;21.81;58.70
45525;BME280;31437;58.350;13.828;2023-04-16T09:05:57;100662.75;;;21.97;58.75
45525;BME280;31437;58.350;13.828;2023-04-16T09:08:24;100663.28;;;22.10;58.69
45525;BME280;31437;58.350;13.828;2023-04-16T09:10:49;100666.47;;;22.23;58.54
45525;BME280;31437;58.350;13.828;2023-04-16T09:13:15;100664.75;;;22.32;58.53
45525;BME280;31437;58.350;13.828;2023-04-16T09:15:44;100674.59;;;22.41;58.67
45525;BME280;31437;58.350;13.828;2023-04-16T09:18:09;100671.31;;;22.48;58.60
45525;BME280;31437;58.350;13.828;2023-04-16T09:20:36;100679.72;;;22.53;58.45
45525;BME280;31437;58.350;13.828;2023-04-16T09:23:01;100674.75;;;22.58;58.55
45525;BME280;31437;58.350;13.828;2023-04-16T09:25:26;100676.84;;;22.64;58.23
45525;BME280;31437;58.350;13.828;2023-04-16T09:27:52;100675.56;;;22.68;58.20
45525;BME280;31437;58.350;13.828;2023-04-16T09:30:18;100677.13;;;22.61;57.95
45525;BME280;31437;58.350;13.828;2023-04-16T09:32:47;100686.75;;;22.54;57.88
45525;BME280;31437;58.350;13.828;2023-04-16T09:35:13;100673.09;;;22.57;57.80
45525;BME280;31437;58.350;13.828;2023-04-16T09:37:39;100670.81;;;22.62;57.90
45525;BME280;31437;58.350;13.828;2023-04-16T09:40:05;100675.88;;;22.65;57.77
45525;BME280;31437;58.350;13.828;2023-04-16T09:42:31;100665.72;;;22.68;57.89
45525;BME280;31437;58.350;13.828;2023-04-16T09:44:57;100672.28;;;22.74;57.98
45525;BME280;31437;58.350;13.828;2023-04-16T09:47:24;100663.25;;;22.75;57.63
45525;BME280;31437;58.350;13.828;2023-04-16T09:49:49;100663.66;;;22.80;57.81
45525;BME280;31437;58.350;13.828;2023-04-16T09:52:16;100664.81;;;22.78;57.93
45525;BME280;31437;58.350;13.828;2023-04-16T09:54:45;100658.16;;;22.82;57.87
45525;BME280;31437;58.350;13.828;2023-04-16T09:57:11;100658.97;;;22.82;57.56
45525;BME280;31437;58.350;13.828;2023-04-16T09:59:36;100665.34;;;22.81;57.54
45525;BME280;31437;58.350;13.828;2023-04-16T10:02:01;100662.34;;;22.84;57.48
45525;BME280;31437;58.350;13.828;2023-04-16T10:04:27;100664.13;;;22.94;57.44
45525;BME280;31437;58.350;13.828;2023-04-16T10:07:05;100659.59;;;22.94;57.33
45525;BME280;31437;58.350;13.828;2023-04-16T10:09:31;100655.16;;;22.95;57.22
45525;BME280;31437;58.350;13.828;2023-04-16T10:11:57;100651.03;;;23.00;57.35
45525;BME280;31437;58.350;13.828;2023-04-16T10:14:22;100651.16;;;22.99;57.23
45525;BME280;31437;58.350;13.828;2023-04-16T10:16:47;100649.81;;;22.95;56.96
45525;BME280;31437;58.350;13.828;2023-04-16T10:19:12;100650.91;;;22.92;57.11
45525;BME280;31437;58.350;13.828;2023-04-16T10:21:38;100644.03;;;22.89;57.12
45525;BME280;31437;58.350;13.828;2023-04-16T10:24:05;100652.25;;;22.78;56.72
45525;BME280;31437;58.350;13.828;2023-04-16T10:26:30;100658.13;;;22.64;56.51
45525;BME280;31437;58.350;13.828;2023-04-16T10:28:57;100655.81;;;22.51;56.26
45525;BME280;31437;58.350;13.828;2023-04-16T10:31:22;100669.53;;;22.38;55.72
45525;BME280;31437;58.350;13.828;2023-04-16T10:33:49;100673.94;;;22.30;55.25
45525;BME280;31437;58.350;13.828;2023-04-16T10:36:15;100664.97;;;22.21;55.29
45525;BME280;31437;58.350;13.828;2023-04-16T10:38:47;100669.31;;;22.12;55.00
45525;BME280;31437;58.350;13.828;2023-04-16T10:41:13;100674.53;;;22.04;54.73
45525;BME280;31437;58.350;13.828;2023-04-16T10:43:48;100664.44;;;21.98;54.52
45525;BME280;31437;58.350;13.828;2023-04-16T10:48:42;100665.44;;;21.87;54.15
45525;BME280;31437;58.350;13.828;2023-04-16T10:51:07;100669.41;;;21.83;54.03
45525;BME280;31437;58.350;13.828;2023-04-16T10:53:46;100658.31;;;21.78;54.09
45525;BME280;31437;58.350;13.828;2023-04-16T10:56:12;100656.75;;;21.75;53.84
45525;BME280;31437;58.350;13.828;2023-04-16T10:58:37;100664.22;;;21.72;53.64
45525;BME280;31437;58.350;13.828;2023-04-16T11:01:06;100659.19;;;21.69;53.60
45525;BME280;31437;58.350;13.828;2023-04-16T11:03:35;100662.25;;;21.64;53.53
45525;BME280;31437;58.350;13.828;2023-04-16T11:06:10;100659.75;;;21.63;53.48
45525;BME280;31437;58.350;13.828;2023-04-16T11:08:36;100661.88;;;21.59;53.30
45525;BME280;31437;58.350;13.828;2023-04-16T11:11:03;100657.66;;;21.57;53.23
45525;BME280;31437;58.350;13.828;2023-04-16T11:13:28;100659.63;;;21.54;53.35
45525;BME280;31437;58.350;13.828;2023-04-16T11:15:57;100665.94;;;21.53;53.29
45525;BME280;31437;58.350;13.828;2023-04-16T11:18:23;100658.34;;;21.49;53.32
45525;BME280;31437;58.350;13.828;2023-04-16T11:20:48;100663.84;;;21.47;53.35
45525;BME280;31437;58.350;13.828;2023-04-16T11:23:14;100662.31;;;21.45;53.34
45525;BME280;31437;58.350;13.828;2023-04-16T11:25:40;100658.09;;;21.42;53.25
45525;BME280;31437;58.350;13.828;2023-04-16T11:28:05;100658.09;;;21.42;53.54
45525;BME280;31437;58.350;13.828;2023-04-16T11:30:32;100668.88;;;21.41;53.30
45525;BME280;31437;58.350;13.828;2023-04-16T11:33:09;100656.53;;;21.40;53.25
45525;BME280;31437;58.350;13.828;2023-04-16T11:35:38;100659.34;;;21.38;53.36
45525;BME280;31437;58.350;13.828;2023-04-16T11:38:03;100658.50;;;21.38;53.42
45525;BME280;31437;58.350;13.828;2023-04-16T11:40:31;100661.31;;;21.36;53.27
45525;BME280;31437;58.350;13.828;2023-04-16T11:43:12;100655.25;;;21.34;53.38
45525;BME280;31437;58.350;13.828;2023-04-16T11:45:39;100662.41;;;21.33;53.47
45525;BME280;31437;58.350;13.828;2023-04-16T11:48:05;100663.41;;;21.32;53.49
45525;BME280;31437;58.350;13.828;2023-04-16T11:50:30;100662.53;;;21.32;53.36
45525;BME280;31437;58.350;13.828;2023-04-16T11:52:56;100673.22;;;21.32;53.41
45525;BME280;31437;58.350;13.828;2023-04-16T11:55:27;100664.53;;;21.30;53.41
45525;BME280;31437;58.350;13.828;2023-04-16T11:57:52;100667.31;;;21.28;53.51
45525;BME280;31437;58.350;13.828;2023-04-16T12:00:17;100650.19;;;21.31;53.46
45525;BME280;31437;58.350;13.828;2023-04-16T12:02:44;100671.66;;;21.29;53.37
45525;BME280;31437;58.350;13.828;2023-04-16T12:07:54;100667.31;;;21.28;53.45
45525;BME280;31437;58.350;13.828;2023-04-16T12:10:20;100660.31;;;21.27;53.36
45525;BME280;31437;58.350;13.828;2023-04-16T12:12:45;100666.59;;;21.26;53.43
45525;BME280;31437;58.350;13.828;2023-04-16T12:15:10;100669.16;;;21.28;53.49
45525;BME280;31437;58.350;13.828;2023-04-16T12:17:36;100660.59;;;21.24;53.69
45525;BME280;31437;58.350;13.828;2023-04-16T12:20:02;100669.28;;;21.26;53.55
45525;BME280;31437;58.350;13.828;2023-04-16T12:22:35;100665.66;;;21.27;53.68
45525;BME280;31437;58.350;13.828;2023-04-16T12:30:28;100667.31;;;21.28;53.70
45525;BME280;31437;58.350;13.828;2023-04-16T12:33:13;100667.31;;;21.28;53.69
45525;BME280;31437;58.350;13.828;2023-04-16T12:35:40;100653.00;;;21.29;53.62
45525;BME280;31437;58.350;13.828;2023-04-16T12:38:07;100666.31;;;21.29;53.77
45525;BME280;31437;58.350;13.828;2023-04-16T12:40:32;100659.31;;;21.28;53.56
45525;BME280;31437;58.350;13.828;2023-04-16T12:42:58;100661.00;;;21.29;53.77
45525;BME280;31437;58.350;13.828;2023-04-16T12:45:23;100659.19;;;21.30;53.64